Time;durP1;ratioP1;P1;durP2;ratioP2;P2;SDS_P1;SDS_P2;PMS_P1;PMS_P2;Temp;Humidity;BMP_temperature;BMP_pressure;BME280_temperature;BME280_humidity;BME280_pressure;Samples;Min_cycle;Max_cycle;Signal;HPM_P1;HPM_P2
2020/12/05 00:00:31;;;;;;;14.83;13.20;;;5.00;99.90;;;;;;5092525;28;20151;-66
2020/12/05 00:02:57;;;;;;;13.10;11.70;;;5.00;99.90;;;;;;5092198;28;20199;-65
2020/12/05 00:05:22;;;;;;;13.50;11.93;;;5.00;99.90;;;;;;5092250;28;20203;-66
2020/12/05 00:07:48;;;;;;;13.57;11.40;;;5.10;99.90;;;;;;5092378;28;20159;-66
2020/12/05 00:10:13;;;;;;;11.07;10.00;;;5.10;99.90;;;;;;5093562;28;20183;-66
2020/12/05 00:12:39;;;;;;;14.73;11.47;;;5.10;99.90;;;;;;5083857;28;20185;-66
2020/12/05 00:15:04;;;;;;;11.00;10.00;;;5.10;99.90;;;;;;5075904;28;20600;-66
2020/12/05 00:17:31;;;;;;;11.40;10.37;;;5.10;99.90;;;;;;5075673;28;20161;-66
2020/12/05 00:19:58;;;;;;;11.27;10.07;;;5.00;99.90;;;;;;5075507;28;20194;-66
2020/12/05 00:22:23;;;;;;;11.73;10.53;;;5.10;99.90;;;;;;5080227;28;20439;-66
2020/12/05 00:24:49;;;;;;;10.50;9.53;;;5.10;99.90;;;;;;5095836;28;20853;-66
2020/12/05 00:27:19;;;;;;;12.93;10.93;;;5.10;99.90;;;;;;5095075;28;20162;-66
2020/12/05 00:29:45;;;;;;;10.43;9.43;;;5.10;99.90;;;;;;5095664;28;20173;-65
2020/12/05 00:32:11;;;;;;;11.40;10.13;;;5.10;99.90;;;;;;5095594;28;20428;-66
2020/12/05 00:34:36;;;;;;;12.97;10.20;;;5.20;99.90;;;;;;5095379;28;20155;-66
2020/12/05 00:37:02;;;;;;;10.83;9.83;;;5.20;99.90;;;;;;5075529;28;20160;-66
2020/12/05 00:39:27;;;;;;;11.73;10.50;;;5.30;99.90;;;;;;5080650;28;20171;-66
2020/12/05 00:41:53;;;;;;;10.43;9.37;;;5.30;99.90;;;;;;5090987;28;20633;-66
2020/12/05 00:44:19;;;;;;;11.60;10.43;;;5.30;99.90;;;;;;5075108;28;20528;-66
2020/12/05 00:46:45;;;;;;;10.77;9.67;;;5.40;99.90;;;;;;5075276;28;20413;-65
2020/12/05 00:49:10;;;;;;;10.73;9.80;;;5.40;99.90;;;;;;5075297;28;20691;-65
2020/12/05 00:51:36;;;;;;;11.53;10.33;;;5.40;99.90;;;;;;5075208;28;20623;-66
2020/12/05 00:54:01;;;;;;;11.20;10.10;;;5.40;99.90;;;;;;5075282;28;20620;-66
2020/12/05 00:56:27;;;;;;;11.17;10.07;;;5.40;99.90;;;;;;5080157;28;20276;-65
2020/12/05 00:58:52;;;;;;;11.40;9.83;;;5.40;99.90;;;;;;5095106;28;20190;-65
2020/12/05 01:01:18;;;;;;;9.40;8.50;;;5.40;99.90;;;;;;5095015;28;20169;-66
2020/12/05 01:03:44;;;;;;;11.37;9.90;;;5.50;99.90;;;;;;5094852;28;20207;-65
2020/12/05 01:06:11;;;;;;;12.00;10.80;;;5.50;99.90;;;;;;5095157;28;20159;-66
2020/12/05 01:08:40;;;;;;;12.33;10.73;;;5.50;99.90;;;;;;5093904;28;20165;-66
2020/12/05 01:11:09;;;;;;;10.83;9.77;;;5.50;99.90;;;;;;5094984;28;20409;-66
2020/12/05 01:13:34;;;;;;;11.63;10.07;;;5.50;99.90;;;;;;5083462;28;20962;-66
2020/12/05 01:16:00;;;;;;;10.53;9.43;;;5.50;99.90;;;;;;5094779;28;20386;-65
2020/12/05 01:18:25;;;;;;;11.80;10.50;;;5.50;99.90;;;;;;5094668;28;20531;-66
2020/12/05 01:20:51;;;;;;;12.00;10.90;;;5.60;99.90;;;;;;5094755;28;20187;-66
2020/12/05 01:23:16;;;;;;;11.07;9.97;;;5.60;99.90;;;;;;5094549;28;20191;-65
2020/12/05 01:25:42;;;;;;;11.27;10.27;;;5.60;99.90;;;;;;5094532;28;20247;-66
2020/12/05 01:28:07;;;;;;;11.87;10.77;;;5.60;99.90;;;;;;5094509;28;20206;-66
2020/12/05 01:30:32;;;;;;;13.73;12.33;;;5.70;99.90;;;;;;5094280;28;20176;-65
2020/12/05 01:32:58;;;;;;;11.30;10.20;;;5.70;99.90;;;;;;5094420;28;20203;-66
2020/12/05 01:35:23;;;;;;;12.87;11.20;;;5.70;99.90;;;;;;5094811;28;20176;-66
2020/12/05 01:37:49;;;;;;;11.00;9.90;;;5.70;99.90;;;;;;5094228;28;20159;-66
2020/12/05 01:40:14;;;;;;;11.83;10.60;;;5.70;99.90;;;;;;5094337;28;20161;-65
2020/12/05 01:42:40;;;;;;;12.80;11.40;;;5.70;99.90;;;;;;5084901;28;20215;-66
2020/12/05 01:45:05;;;;;;;11.53;10.47;;;5.80;99.90;;;;;;5073963;28;20158;-66
2020/12/05 01:47:31;;;;;;;11.23;10.03;;;5.80;99.90;;;;;;5079703;28;20564;-66
2020/12/05 01:49:57;;;;;;;11.43;10.27;;;5.80;99.90;;;;;;5094007;28;20244;-66
2020/12/05 01:52:23;;;;;;;10.23;9.33;;;5.80;99.90;;;;;;5073831;28;20157;-66
2020/12/05 01:54:50;;;;;;;11.37;10.17;;;5.80;99.90;;;;;;5072631;28;20402;-66
2020/12/05 01:57:18;;;;;;;12.00;9.80;;;5.90;99.90;;;;;;5072468;28;20154;-66
2020/12/05 01:59:43;;;;;;;11.73;10.53;;;5.80;99.90;;;;;;5073741;28;20402;-66
2020/12/05 02:02:09;;;;;;;12.13;10.97;;;5.90;99.90;;;;;;5073859;28;20436;-66
2020/12/05 02:04:47;;;;;;;11.27;10.10;;;5.90;99.90;;;;;;5080005;28;20182;-66
2020/12/05 02:07:23;;;;;;;58.87;32.50;;;5.90;99.90;;;;;;5093916;28;20154;-66
2020/12/05 02:09:51;;;;;;;39.03;23.97;;;5.90;99.90;;;;;;5093774;28;20784;-66
2020/12/05 02:12:30;;;;;;;37.13;24.93;;;5.90;99.90;;;;;;5088130;28;20460;-66
2020/12/05 02:15:03;;;;;;;40.57;25.80;;;6.00;99.90;;;;;;5072322;28;20797;-66
2020/12/05 02:17:30;;;;;;;32.27;24.30;;;5.90;99.90;;;;;;5073408;28;20438;-66
2020/12/05 02:19:56;;;;;;;33.20;22.03;;;5.90;99.90;;;;;;5073256;28;20432;-66
2020/12/05 02:22:26;;;;;;;31.43;21.77;;;6.00;99.90;;;;;;5086010;28;20415;-65
2020/12/05 02:24:52;;;;;;;31.53;22.70;;;6.00;99.90;;;;;;5093437;28;20932;-66
2020/12/05 02:27:19;;;;;;;25.33;19.77;;;6.00;99.90;;;;;;5093549;28;20445;-66
2020/12/05 02:29:45;;;;;;;26.50;18.57;;;6.10;99.90;;;;;;5093573;28;20387;-66
2020/12/05 02:32:10;;;;;;;18.27;16.40;;;6.10;99.90;;;;;;5093482;28;20740;-66
2020/12/05 02:34:36;;;;;;;21.67;19.40;;;6.10;99.90;;;;;;5093039;28;20203;-66
2020/12/05 02:37:07;;;;;;;19.40;17.33;;;6.10;99.90;;;;;;5093314;28;20516;-66
2020/12/05 02:39:33;;;;;;;19.00;16.90;;;6.10;99.90;;;;;;5093065;28;20230;-66
2020/12/05 02:42:00;;;;;;;20.30;18.00;;;6.10;99.90;;;;;;5088220;28;20423;-66
2020/12/05 02:44:25;;;;;;;21.33;18.30;;;6.20;99.90;;;;;;5073647;28;20449;-66
2020/12/05 02:46:54;;;;;;;19.33;17.23;;;6.20;99.90;;;;;;5093323;28;20415;-66
2020/12/05 02:49:20;;;;;;;22.17;17.97;;;6.20;99.90;;;;;;5093187;28;20158;-65
2020/12/05 02:51:45;;;;;;;21.23;17.13;;;6.20;99.90;;;;;;5093135;28;20903;-66
2020/12/05 02:54:11;;;;;;;20.77;18.03;;;6.20;99.90;;;;;;5093135;28;20163;-66
2020/12/05 02:56:36;;;;;;;19.60;17.60;;;6.20;99.90;;;;;;5092910;28;20179;-66
2020/12/05 02:59:02;;;;;;;20.57;18.37;;;6.20;99.90;;;;;;5093189;28;20614;-66
2020/12/05 03:01:27;;;;;;;20.77;18.13;;;6.30;99.90;;;;;;5093294;28;20235;-66
2020/12/05 03:03:53;;;;;;;20.30;18.30;;;6.20;99.90;;;;;;5092915;28;20203;-66
2020/12/05 03:06:18;;;;;;;19.70;17.60;;;6.20;99.90;;;;;;5092969;28;20521;-66
2020/12/05 03:08:44;;;;;;;20.77;18.20;;;6.30;99.90;;;;;;5093095;28;20182;-66
2020/12/05 03:11:09;;;;;;;23.43;19.47;;;6.30;99.90;;;;;;5092868;28;20232;-66
2020/12/05 03:13:35;;;;;;;24.13;20.43;;;6.30;99.90;;;;;;5089696;28;20176;-66
2020/12/05 03:16:01;;;;;;;21.97;19.73;;;6.30;99.90;;;;;;5093163;28;20161;-66
2020/12/05 03:18:26;;;;;;;21.70;18.00;;;6.30;99.90;;;;;;5092772;28;20159;-66
2020/12/05 03:20:52;;;;;;;21.30;19.10;;;6.30;99.90;;;;;;5092725;28;20298;-65
2020/12/05 03:23:17;;;;;;;21.37;19.07;;;6.30;99.90;;;;;;5093620;28;20188;-66
2020/12/05 03:25:43;;;;;;;20.43;18.30;;;6.30;99.90;;;;;;5093420;28;20191;-66
2020/12/05 03:28:08;;;;;;;20.50;17.93;;;6.30;99.90;;;;;;5092758;28;20161;-66
2020/12/05 03:30:34;;;;;;;20.93;18.70;;;6.30;99.90;;;;;;5092511;28;20216;-66
2020/12/05 03:32:59;;;;;;;19.43;17.40;;;6.30;99.90;;;;;;5092810;28;20147;-66
2020/12/05 03:35:26;;;;;;;19.83;17.80;;;6.30;99.90;;;;;;5092612;28;20167;-66
2020/12/05 03:37:53;;;;;;;19.97;17.97;;;6.30;99.90;;;;;;5092789;28;20217;-66
2020/12/05 03:40:18;;;;;;;20.70;18.70;;;6.30;99.90;;;;;;5092692;28;20442;-66
2020/12/05 03:42:44;;;;;;;21.33;19.13;;;6.20;99.90;;;;;;5079105;28;21014;-66
2020/12/05 03:45:10;;;;;;;22.43;20.13;;;6.20;99.90;;;;;;5073608;28;20409;-66
2020/12/05 03:47:35;;;;;;;19.60;17.50;;;6.20;99.90;;;;;;5090881;28;20208;-66
2020/12/05 03:50:03;;;;;;;22.83;20.43;;;6.20;99.90;;;;;;5096630;28;20570;-66
2020/12/05 03:52:29;;;;;;;21.97;19.67;;;6.20;99.90;;;;;;5096636;28;20555;-66
2020/12/05 03:54:55;;;;;;;22.07;19.77;;;6.20;99.90;;;;;;5096492;28;20390;-66
2020/12/05 03:57:21;;;;;;;20.33;18.00;;;6.20;99.90;;;;;;5096304;28;20514;-66
2020/12/05 03:59:46;;;;;;;22.37;19.53;;;6.20;99.90;;;;;;5096461;28;20397;-66
2020/12/05 04:02:12;;;;;;;20.03;17.90;;;6.20;99.90;;;;;;5096078;28;20177;-66
2020/12/05 04:04:37;;;;;;;20.30;18.30;;;6.10;99.90;;;;;;5096227;28;20173;-66
2020/12/05 04:07:03;;;;;;;20.87;18.47;;;6.10;99.90;;;;;;5095986;28;20173;-66
2020/12/05 04:09:28;;;;;;;21.93;18.57;;;6.10;99.90;;;;;;5096161;28;20644;-66
2020/12/05 04:11:54;;;;;;;25.60;20.70;;;6.10;99.90;;;;;;5089760;28;20262;-66
2020/12/05 04:14:19;;;;;;;21.57;19.27;;;6.10;99.90;;;;;;5075848;28;20249;-66
2020/12/05 04:16:45;;;;;;;20.50;18.30;;;6.10;99.90;;;;;;5075684;28;20162;-66
2020/12/05 04:19:10;;;;;;;22.57;20.00;;;6.10;99.90;;;;;;5075775;28;20161;-66
2020/12/05 04:21:36;;;;;;;23.97;19.53;;;6.10;99.90;;;;;;5090282;28;20202;-66
2020/12/05 04:24:01;;;;;;;21.30;19.03;;;6.10;99.90;;;;;;5095726;28;20187;-66
2020/12/05 04:26:27;;;;;;;20.67;18.47;;;6.10;99.90;;;;;;5095698;28;20157;-66
2020/12/05 04:28:52;;;;;;;21.70;18.67;;;6.10;99.90;;;;;;5094542;28;20165;-66
2020/12/05 04:31:19;;;;;;;22.60;20.03;;;6.10;99.90;;;;;;5095738;28;20165;-66
2020/12/05 04:33:44;;;;;;;22.87;18.87;;;6.10;99.90;;;;;;5095713;28;20565;-66
2020/12/05 04:36:10;;;;;;;22.03;18.60;;;6.00;99.90;;;;;;5095601;28;20407;-66
2020/12/05 04:38:36;;;;;;;21.60;19.33;;;6.00;99.90;;;;;;5095316;28;20191;-66
2020/12/05 04:41:02;;;;;;;21.97;19.67;;;6.00;99.90;;;;;;5093979;28;20245;-66
2020/12/05 04:43:28;;;;;;;22.60;20.30;;;6.00;99.90;;;;;;5092502;28;20188;-66
2020/12/05 04:45:54;;;;;;;20.57;18.40;;;6.00;99.90;;;;;;5095434;28;20960;-66
2020/12/05 04:48:21;;;;;;;21.00;18.77;;;6.00;99.90;;;;;;5095352;28;20484;-66
2020/12/05 04:50:47;;;;;;;21.93;19.73;;;6.00;99.90;;;;;;5095248;28;20394;-66
2020/12/05 04:53:18;;;;;;;23.13;20.73;;;6.00;99.90;;;;;;5095341;28;20398;-66
2020/12/05 04:55:44;;;;;;;21.17;19.00;;;6.00;99.90;;;;;;5094794;28;20466;-66
2020/12/05 05:00:57;;;;;;;22.43;19.90;;;5.90;99.90;;;;;;5131234;27;21477;-66
2020/12/05 05:03:25;;;;;;;20.70;18.37;;;6.00;99.90;;;;;;5131285;27;20390;-66
2020/12/05 05:05:52;;;;;;;20.70;18.50;;;6.00;99.90;;;;;;5129968;28;20427;-66
2020/12/05 05:08:18;;;;;;;20.80;18.60;;;6.00;99.90;;;;;;5129934;28;20402;-66
2020/12/05 05:10:43;;;;;;;19.57;17.43;;;6.00;99.90;;;;;;5131934;28;20389;-66
2020/12/05 05:13:17;;;;;;;19.07;17.07;;;6.00;99.90;;;;;;5125946;27;20550;-66
2020/12/05 05:15:43;;;;;;;21.13;18.53;;;5.90;99.90;;;;;;5131544;27;20513;-66
2020/12/05 05:18:10;;;;;;;20.70;18.30;;;5.90;99.90;;;;;;5131181;27;20385;-66
2020/12/05 05:20:39;;;;;;;22.13;18.47;;;5.90;99.90;;;;;;5129567;28;20463;-66
2020/12/05 05:23:10;;;;;;;20.40;18.20;;;5.90;99.90;;;;;;5129678;28;20858;-66
2020/12/05 05:28:33;;;;;;;18.80;16.80;;;5.90;99.90;;;;;;5106157;27;20557;-65
2020/12/05 05:33:45;;;;;;;20.87;18.30;;;5.90;99.90;;;;;;5110826;27;20520;-65
2020/12/05 05:39:02;;;;;;;18.50;16.60;;;5.90;99.90;;;;;;5111032;27;20510;-66
2020/12/05 05:41:27;;;;;;;19.93;17.93;;;5.90;99.90;;;;;;5103483;28;20421;-65
2020/12/05 05:43:56;;;;;;;24.03;17.90;;;5.90;99.90;;;;;;5090441;28;20710;-65
2020/12/05 05:46:32;;;;;;;20.73;17.47;;;5.90;99.90;;;;;;5101257;28;20171;-65
2020/12/05 05:48:58;;;;;;;20.60;18.30;;;5.80;99.90;;;;;;5110613;28;20388;-65
2020/12/05 05:51:45;;;;;;;21.23;18.70;;;5.80;99.90;;;;;;5110646;28;20711;-65
2020/12/05 05:57:02;;;;;;;23.00;19.77;;;5.80;99.90;;;;;;5110883;27;20506;-65
2020/12/05 05:59:30;;;;;;;22.37;20.00;;;5.80;99.90;;;;;;5110666;28;20386;-65
2020/12/05 06:01:56;;;;;;;25.57;20.23;;;5.70;99.90;;;;;;5108846;28;20378;-65
2020/12/05 06:04:28;;;;;;;22.67;19.60;;;5.70;99.90;;;;;;5090323;28;20408;-66
2020/12/05 06:06:54;;;;;;;22.20;19.87;;;5.60;99.90;;;;;;5090650;28;20377;-66
2020/12/05 06:09:25;;;;;;;25.20;20.60;;;5.60;99.90;;;;;;5090472;28;20388;-66
2020/12/05 06:11:52;;;;;;;22.47;19.53;;;5.50;99.90;;;;;;5100237;28;20529;-66
2020/12/05 06:14:22;;;;;;;23.00;19.67;;;5.50;99.90;;;;;;5110675;28;20381;-66
2020/12/05 06:16:52;;;;;;;25.20;20.30;;;5.50;99.90;;;;;;5109427;28;20396;-66
2020/12/05 06:19:18;;;;;;;24.33;20.40;;;5.40;99.90;;;;;;5106991;28;20912;-66
2020/12/05 06:21:49;;;;;;;23.80;20.57;;;5.40;99.90;;;;;;5090342;28;20921;-66
2020/12/05 06:24:15;;;;;;;26.00;21.63;;;5.40;99.90;;;;;;5090000;28;20384;-66
2020/12/05 06:26:43;;;;;;;23.87;19.70;;;5.40;99.90;;;;;;5088936;28;20488;-66
2020/12/05 06:29:09;;;;;;;25.57;22.73;;;5.30;99.90;;;;;;5089985;28;20496;-66
2020/12/05 06:31:44;;;;;;;24.50;20.17;;;5.30;99.90;;;;;;5089832;28;20760;-66
2020/12/05 06:34:10;;;;;;;23.13;20.63;;;5.30;99.90;;;;;;5089939;28;20857;-66
2020/12/05 06:39:16;;;;;;;28.00;22.83;;;5.30;99.90;;;;;;5110827;27;20572;-65
2020/12/05 06:41:47;;;;;;;23.43;20.37;;;5.20;99.90;;;;;;5106356;28;20426;-65
2020/12/05 06:44:18;;;;;;;26.03;21.83;;;5.20;99.90;;;;;;5105735;28;20399;-65
2020/12/05 06:57:42;;;;;;;28.20;22.97;;;5.10;99.90;;;;;;5131497;27;20504;-66
2020/12/05 07:05:33;;;;;;;23.93;19.90;;;5.00;99.90;;;;;;5110772;27;20509;-65
2020/12/05 07:08:00;;;;;;;24.47;21.60;;;5.00;99.90;;;;;;5109815;28;20391;-67
2020/12/05 07:10:50;;;;;;;23.27;20.17;;;5.00;99.90;;;;;;5105710;28;20915;-65
2020/12/05 07:13:17;;;;;;;21.70;19.40;;;5.00;99.90;;;;;;5089291;28;20397;-65
2020/12/05 07:15:43;;;;;;;23.47;18.90;;;5.00;99.90;;;;;;5090032;28;20503;-65
2020/12/05 07:18:17;;;;;;;25.23;20.30;;;5.00;99.90;;;;;;5090100;28;20729;-65
2020/12/05 07:20:43;;;;;;;23.13;20.43;;;5.00;99.90;;;;;;5089947;28;20470;-67
2020/12/05 07:23:08;;;;;;;26.03;21.13;;;5.10;99.90;;;;;;5089651;28;20393;-65
2020/12/05 07:25:34;;;;;;;21.23;18.80;;;5.10;99.90;;;;;;5089775;28;20159;-67
2020/12/05 07:28:01;;;;;;;23.87;19.53;;;5.10;99.90;;;;;;5090769;28;20510;-65
2020/12/05 07:30:26;;;;;;;24.17;18.03;;;5.10;99.90;;;;;;5089731;28;20460;-65
2020/12/05 07:32:52;;;;;;;22.20;18.90;;;5.10;99.90;;;;;;5089596;28;20406;-65
2020/12/05 07:35:18;;;;;;;24.33;20.33;;;5.00;99.90;;;;;;5090048;28;20179;-66
2020/12/05 07:37:45;;;;;;;20.27;18.13;;;5.00;99.90;;;;;;5089547;28;20252;-65
2020/12/05 07:40:11;;;;;;;25.33;19.00;;;5.00;99.90;;;;;;5110180;28;20469;-65
2020/12/05 07:42:39;;;;;;;19.40;17.40;;;5.00;99.90;;;;;;5108781;28;20393;-65
2020/12/05 07:45:08;;;;;;;22.53;19.70;;;5.00;99.90;;;;;;5099761;28;20456;-65
2020/12/05 07:47:34;;;;;;;24.03;19.63;;;5.00;99.90;;;;;;5089528;28;20788;-65
2020/12/05 07:50:01;;;;;;;25.77;19.63;;;5.00;99.90;;;;;;5089392;28;20405;-66
2020/12/05 07:52:27;;;;;;;19.77;17.47;;;5.00;99.90;;;;;;5089611;28;20154;-65
2020/12/05 07:54:56;;;;;;;22.80;18.63;;;4.90;99.90;;;;;;5089631;28;20725;-66
2020/12/05 07:57:26;;;;;;;20.27;17.67;;;4.90;99.90;;;;;;5089119;28;20396;-65
2020/12/05 08:00:00;;;;;;;20.97;17.43;;;4.90;99.90;;;;;;5088403;28;20420;-65
2020/12/05 08:05:43;;;;;;;20.47;18.37;;;4.80;99.90;;;;;;5090487;28;20557;-65
2020/12/05 08:08:11;;;;;;;18.80;16.00;;;4.80;99.90;;;;;;5088871;28;20418;-65
2020/12/05 08:10:37;;;;;;;21.93;17.77;;;4.80;99.90;;;;;;5090338;28;20392;-66
2020/12/05 08:15:39;;;;;;;19.53;16.30;;;4.80;99.90;;;;;;5130249;27;20570;-66
2020/12/05 08:18:05;;;;;;;20.40;16.97;;;4.90;99.90;;;;;;5128909;27;20384;-66
2020/12/05 08:20:31;;;;;;;20.60;16.60;;;4.90;99.90;;;;;;5107912;28;20430;-66
2020/12/05 08:22:59;;;;;;;20.20;17.67;;;4.90;99.90;;;;;;5108925;28;20418;-66
2020/12/05 08:25:26;;;;;;;18.23;16.30;;;4.80;99.90;;;;;;5107511;28;20459;-66
2020/12/05 08:27:53;;;;;;;21.57;17.37;;;4.80;99.90;;;;;;5108859;28;20389;-66
2020/12/05 08:30:19;;;;;;;23.53;18.27;;;4.90;99.90;;;;;;5108824;28;20381;-66
2020/12/05 08:32:45;;;;;;;19.60;16.90;;;4.90;99.90;;;;;;5108707;28;20427;-66
2020/12/05 08:35:14;;;;;;;18.63;15.77;;;4.90;99.90;;;;;;5109272;28;20495;-66
2020/12/05 08:37:42;;;;;;;19.70;16.00;;;5.00;99.90;;;;;;5108688;28;20151;-66
2020/12/05 08:40:14;;;;;;;17.67;15.63;;;5.10;99.90;;;;;;5108801;28;20793;-66
2020/12/05 08:42:46;;;;;;;18.83;15.43;;;5.10;99.90;;;;;;5108180;28;20477;-66
2020/12/05 08:45:20;;;;;;;17.67;15.77;;;5.10;99.90;;;;;;5110177;28;20852;-66
2020/12/05 08:47:47;;;;;;;18.40;14.87;;;5.10;99.90;;;;;;5110308;28;20433;-66
2020/12/05 08:50:32;;;;;;;18.80;14.80;;;5.10;99.90;;;;;;5092172;28;20739;-66
2020/12/05 08:52:59;;;;;;;16.47;14.20;;;5.10;99.90;;;;;;5118268;28;20404;-66
2020/12/05 08:55:25;;;;;;;15.67;14.03;;;5.10;99.90;;;;;;5128841;27;20446;-66
2020/12/05 08:57:53;;;;;;;14.10;12.60;;;5.20;99.90;;;;;;5129886;27;20744;-66
2020/12/05 09:00:20;;;;;;;14.20;12.40;;;5.20;99.90;;;;;;5130417;27;20718;-66
2020/12/05 09:02:46;;;;;;;14.73;13.10;;;5.20;99.90;;;;;;5130470;27;20390;-65
2020/12/05 09:05:11;;;;;;;18.60;12.30;;;5.20;99.90;;;;;;5130153;27;20423;-66
2020/12/05 09:07:37;;;;;;;12.20;10.83;;;5.20;99.90;;;;;;5130135;27;20191;-66
2020/12/05 09:10:15;;;;;;;13.50;11.20;;;5.30;99.90;;;;;;5129464;27;20175;-66
2020/12/05 09:12:40;;;;;;;12.20;10.90;;;5.20;99.90;;;;;;5118525;27;20206;-66
2020/12/05 09:15:06;;;;;;;11.40;10.03;;;5.30;99.90;;;;;;5109777;28;20493;-66
2020/12/05 09:17:33;;;;;;;9.93;8.80;;;5.30;99.90;;;;;;5110009;28;20189;-66
2020/12/05 09:20:20;;;;;;;9.33;8.43;;;5.30;99.90;;;;;;5109516;28;20438;-66
2020/12/05 09:22:49;;;;;;;10.03;8.97;;;5.30;99.90;;;;;;5108771;28;20401;-66
2020/12/05 09:25:33;;;;;;;8.70;7.83;;;5.30;99.90;;;;;;5105883;28;20384;-66
2020/12/05 09:27:59;;;;;;;11.10;8.47;;;5.30;99.90;;;;;;5113114;28;20855;-66
2020/12/05 09:30:28;;;;;;;9.00;8.10;;;5.30;99.90;;;;;;5114942;28;20406;-65
2020/12/05 09:32:53;;;;;;;7.83;7.03;;;5.30;99.90;;;;;;5115995;28;20738;-66
2020/12/05 09:35:22;;;;;;;9.10;7.80;;;5.30;99.90;;;;;;5116128;28;20435;-66
2020/12/05 09:37:48;;;;;;;8.07;7.13;;;5.30;99.90;;;;;;5111402;28;20173;-66
2020/12/05 09:40:16;;;;;;;8.37;7.60;;;5.40;99.90;;;;;;5094171;28;20491;-66
2020/12/05 09:42:43;;;;;;;7.37;6.67;;;5.60;99.90;;;;;;5095758;28;20936;-66
2020/12/05 09:45:10;;;;;;;7.20;6.47;;;5.80;99.90;;;;;;5114208;28;20894;-66
2020/12/05 09:47:36;;;;;;;8.23;6.60;;;5.90;99.90;;;;;;5115629;28;20399;-66
2020/12/05 09:50:04;;;;;;;7.43;6.73;;;6.00;99.90;;;;;;5115736;28;20388;-66
2020/12/05 09:52:29;;;;;;;7.13;6.43;;;6.20;99.90;;;;;;5114516;28;20755;-67
2020/12/05 09:54:55;;;;;;;6.80;5.63;;;6.30;99.90;;;;;;5115686;28;20443;-66
2020/12/05 09:57:20;;;;;;;5.50;4.90;;;6.40;99.90;;;;;;5115642;28;20153;-66
2020/12/05 09:59:46;;;;;;;6.17;5.30;;;6.40;99.90;;;;;;5115589;28;20153;-66
2020/12/05 10:02:12;;;;;;;6.93;6.23;;;6.50;99.90;;;;;;5114781;28;20168;-66
2020/12/05 10:04:38;;;;;;;5.60;5.10;;;6.50;99.90;;;;;;5115377;28;20161;-66
2020/12/05 10:07:04;;;;;;;6.50;5.90;;;6.70;99.90;;;;;;5115443;28;20666;-66
2020/12/05 10:09:30;;;;;;;6.43;5.80;;;6.70;99.90;;;;;;5096912;28;20775;-66
2020/12/05 10:11:56;;;;;;;6.17;5.57;;;6.80;99.90;;;;;;5093656;28;20443;-66
2020/12/05 10:14:21;;;;;;;6.00;5.43;;;6.80;99.90;;;;;;5094636;28;20704;-66
2020/12/05 10:16:47;;;;;;;5.43;4.70;;;6.80;99.90;;;;;;5094833;28;20399;-66
2020/12/05 10:19:13;;;;;;;4.80;4.40;;;6.70;99.90;;;;;;5114074;28;20185;-66
2020/12/05 10:21:38;;;;;;;5.90;5.40;;;6.70;99.90;;;;;;5115053;28;20206;-66
2020/12/05 10:24:04;;;;;;;5.50;4.03;;;6.60;99.90;;;;;;5115116;28;20629;-66
2020/12/05 10:26:29;;;;;;;3.87;3.47;;;6.60;99.90;;;;;;5114986;28;20673;-66
2020/12/05 10:28:55;;;;;;;3.67;3.37;;;6.60;99.90;;;;;;5114969;28;20187;-66
2020/12/05 10:31:20;;;;;;;4.60;3.87;;;6.50;99.90;;;;;;5114922;28;20165;-66
2020/12/05 10:33:46;;;;;;;4.97;4.37;;;6.50;99.90;;;;;;5114717;28;20187;-66
2020/12/05 10:36:12;;;;;;;4.03;3.73;;;6.60;99.90;;;;;;5114014;28;20251;-66
2020/12/05 10:38:37;;;;;;;3.63;3.33;;;6.60;99.90;;;;;;5102264;28;20176;-66
2020/12/05 10:41:03;;;;;;;3.63;3.30;;;6.50;99.90;;;;;;5094059;28;20169;-66
2020/12/05 10:43:28;;;;;;;3.20;2.90;;;6.50;99.90;;;;;;5093059;28;20176;-66
2020/12/05 10:45:54;;;;;;;3.57;3.27;;;6.50;99.90;;;;;;5094129;28;20544;-66
2020/12/05 10:48:19;;;;;;;3.67;3.30;;;6.60;99.90;;;;;;5094256;28;20525;-66
2020/12/05 10:50:45;;;;;;;3.30;3.00;;;6.60;99.90;;;;;;5094204;28;20157;-66
2020/12/05 10:53:10;;;;;;;3.70;3.20;;;6.80;99.90;;;;;;5094538;28;20179;-66
2020/12/05 10:55:36;;;;;;;2.47;2.27;;;6.80;99.90;;;;;;5093993;28;20188;-66
2020/12/05 10:58:01;;;;;;;2.50;2.30;;;6.80;99.90;;;;;;5093910;28;20147;-66
2020/12/05 11:00:27;;;;;;;2.63;2.43;;;6.90;99.90;;;;;;5093943;28;20155;-66
2020/12/05 11:02:52;;;;;;;5.10;2.17;;;6.90;99.90;;;;;;5093905;28;20555;-66
2020/12/05 11:05:18;;;;;;;2.43;2.23;;;6.90;99.90;;;;;;5093770;28;20177;-66
2020/12/05 11:07:43;;;;;;;1.93;1.80;;;6.80;99.90;;;;;;5098984;28;20188;-66
2020/12/05 11:10:09;;;;;;;4.00;2.87;;;6.90;99.90;;;;;;5094423;28;20297;-66
2020/12/05 11:12:35;;;;;;;1.90;1.80;;;6.80;99.90;;;;;;5093630;28;20171;-66
2020/12/05 11:15:00;;;;;;;2.13;1.93;;;6.80;99.90;;;;;;5093433;28;20212;-66
2020/12/05 11:17:26;;;;;;;3.27;2.20;;;6.80;99.90;;;;;;5093407;28;20264;-66
2020/12/05 11:19:51;;;;;;;2.30;1.93;;;6.80;99.90;;;;;;5092056;28;20537;-66
2020/12/05 11:22:17;;;;;;;2.50;1.40;;;6.80;99.90;;;;;;5093282;28;20161;-66
2020/12/05 11:24:42;;;;;;;2.30;1.80;;;6.80;99.90;;;;;;5093244;28;20156;-66
2020/12/05 11:27:08;;;;;;;4.30;1.90;;;6.70;99.90;;;;;;5112364;28;20259;-66
2020/12/05 11:29:33;;;;;;;1.23;1.13;;;6.70;99.90;;;;;;5113878;28;20531;-66
2020/12/05 11:31:59;;;;;;;2.20;2.00;;;6.70;99.90;;;;;;5113561;28;20155;-66
2020/12/05 11:34:24;;;;;;;3.10;2.70;;;6.70;99.90;;;;;;5113290;28;20190;-66
2020/12/05 11:36:50;;;;;;;1.60;1.50;;;6.70;99.90;;;;;;5113472;28;20153;-66
2020/12/05 11:39:15;;;;;;;3.10;1.60;;;6.60;99.90;;;;;;5094839;28;20175;-66
2020/12/05 11:41:42;;;;;;;1.77;1.67;;;6.60;99.90;;;;;;5093104;28;20519;-66
2020/12/05 11:44:07;;;;;;;1.60;1.50;;;6.60;99.90;;;;;;5111307;28;20651;-66
2020/12/05 11:46:33;;;;;;;1.70;1.50;;;6.60;99.90;;;;;;5113292;28;20394;-66
2020/12/05 11:48:59;;;;;;;2.33;1.77;;;6.60;99.90;;;;;;5112974;28;20149;-66
2020/12/05 11:51:25;;;;;;;1.73;1.53;;;6.60;99.90;;;;;;5113064;28;20147;-66
2020/12/05 11:53:51;;;;;;;1.90;1.70;;;6.60;99.90;;;;;;5113134;28;20444;-66
2020/12/05 11:56:17;;;;;;;2.77;1.70;;;6.60;99.90;;;;;;5113147;28;20830;-66
2020/12/05 11:58:42;;;;;;;2.10;1.90;;;6.60;99.90;;;;;;5113173;28;20156;-66
2020/12/05 12:01:08;;;;;;;2.30;1.57;;;6.60;99.90;;;;;;5112323;28;20168;-66
2020/12/05 12:03:34;;;;;;;2.00;1.40;;;6.60;99.90;;;;;;5113045;28;20217;-66
2020/12/05 12:06:00;;;;;;;1.47;1.37;;;6.60;99.90;;;;;;5112742;28;20162;-66
2020/12/05 12:08:26;;;;;;;1.60;1.23;;;6.60;99.90;;;;;;5098847;28;20435;-66
2020/12/05 12:10:51;;;;;;;2.50;1.40;;;6.60;99.90;;;;;;5091671;28;20161;-66
2020/12/05 12:13:17;;;;;;;1.70;1.60;;;6.60;99.90;;;;;;5092765;28;20163;-66
2020/12/05 12:15:42;;;;;;;1.57;1.43;;;6.50;99.90;;;;;;5092764;28;20647;-66
2020/12/05 12:18:08;;;;;;;1.50;1.40;;;6.60;99.90;;;;;;5111764;28;20460;-66
2020/12/05 12:20:34;;;;;;;1.30;1.20;;;6.50;99.90;;;;;;5112974;28;20186;-66
2020/12/05 12:22:59;;;;;;;1.80;1.60;;;6.50;99.90;;;;;;5113293;28;20168;-66
2020/12/05 12:25:25;;;;;;;3.33;1.83;;;6.50;99.90;;;;;;5112769;28;20166;-66
2020/12/05 12:27:50;;;;;;;1.73;1.40;;;6.50;99.90;;;;;;5112627;28;20173;-66
2020/12/05 12:30:16;;;;;;;2.03;1.57;;;6.50;99.90;;;;;;5112736;28;20156;-66
2020/12/05 12:32:41;;;;;;;1.67;1.50;;;6.50;99.90;;;;;;5112859;28;20233;-66
2020/12/05 12:35:07;;;;;;;2.07;1.43;;;6.60;99.90;;;;;;5111869;28;20579;-66
2020/12/05 12:37:32;;;;;;;3.70;2.17;;;6.60;99.90;;;;;;5106694;28;20179;-66
2020/12/05 12:39:58;;;;;;;1.80;1.70;;;6.60;99.90;;;;;;5092579;28;20244;-66
2020/12/05 12:42:26;;;;;;;1.60;1.50;;;6.60;99.90;;;;;;5092618;28;20628;-66
2020/12/05 12:44:52;;;;;;;1.67;1.57;;;6.50;99.90;;;;;;5094513;28;20251;-66
2020/12/05 12:50:10;;;;;;;1.67;1.50;;;6.50;99.90;;;;;;5128979;27;20569;-65
2020/12/05 12:52:35;;;;;;;1.87;1.73;;;6.50;99.90;;;;;;5111039;28;20388;-65
2020/12/05 12:55:01;;;;;;;1.87;1.60;;;6.50;99.90;;;;;;5110692;28;20194;-67
2020/12/05 12:57:31;;;;;;;1.60;1.50;;;6.50;99.90;;;;;;5110629;28;20163;-65
2020/12/05 12:59:56;;;;;;;1.90;1.70;;;6.50;99.90;;;;;;5111776;27;20519;-66
2020/12/05 13:02:22;;;;;;;3.43;1.90;;;6.50;99.90;;;;;;5111012;28;20509;-65
2020/12/05 13:04:48;;;;;;;5.70;1.80;;;6.50;99.90;;;;;;5110524;28;20158;-67
2020/12/05 13:07:13;;;;;;;2.07;1.60;;;6.50;99.90;;;;;;5108322;28;20642;-65
2020/12/05 13:09:38;;;;;;;2.77;1.83;;;6.50;99.90;;;;;;5110275;28;20189;-65
2020/12/05 13:12:04;;;;;;;1.50;1.20;;;6.50;99.90;;;;;;5110410;28;20165;-65
2020/12/05 13:14:30;;;;;;;2.10;1.40;;;6.60;99.90;;;;;;5110527;28;20194;-66
2020/12/05 13:16:55;;;;;;;2.60;2.07;;;6.50;99.90;;;;;;5110563;28;20617;-67
2020/12/05 13:19:21;;;;;;;1.83;1.67;;;6.60;99.90;;;;;;5110166;28;20292;-66
2020/12/05 13:21:46;;;;;;;2.03;1.50;;;6.50;99.90;;;;;;5109782;28;20157;-66